createdAt,value
2019-04-28T00:01:02.854Z,98306.72
2019-04-28T00:02:15.733Z,98304.55
2019-04-28T00:03:24.249Z,98303.93
2019-04-28T00:04:32.338Z,98305.11
2019-04-28T00:05:41.494Z,98298.78
2019-04-28T00:06:51.544Z,98299.61
2019-04-28T00:08:01.169Z,98300.45
2019-04-28T00:09:11.479Z,98301.28
2019-04-28T00:10:20.948Z,98299.11
2019-04-28T00:11:29.070Z,98299.61
2019-04-28T00:12:41.285Z,98300.11
2019-04-28T00:13:49.298Z,98298.09
2019-04-28T00:14:57.352Z,98295.92
2019-04-28T00:16:07.130Z,98302.03
2019-04-28T00:17:15.057Z,98303.87
2019-04-28T00:18:23.631Z,98305.70
2019-04-28T00:19:31.635Z,98303.03
2019-04-28T00:20:57.189Z,98303.69
2019-04-28T00:22:12.805Z,98301.17
2019-04-28T00:23:21.672Z,98306.35
2019-04-28T00:24:43.543Z,98304.67
2019-04-28T00:26:08.363Z,98303.28
2019-04-28T00:27:16.732Z,98302.78
2019-04-28T00:28:24.624Z,98303.59
2019-04-28T00:29:40.257Z,98304.44
2019-04-28T00:30:42.356Z,98300.93
2019-04-28T00:31:51.784Z,98303.22
2019-04-28T00:33:01.791Z,98296.21
2019-04-28T00:34:11.478Z,98301.70
2019-04-28T00:35:19.554Z,98301.55
2019-04-28T00:36:27.364Z,98293.55
2019-04-28T00:37:36.371Z,98296.37
2019-04-28T00:38:44.447Z,98291.19
2019-04-28T00:39:52.561Z,98290.20
2019-04-28T00:41:02.407Z,98292.19
2019-04-28T00:42:11.777Z,98291.84
2019-04-28T00:43:21.724Z,98292.34
2019-04-28T00:44:31.308Z,98290.51
2019-04-28T00:45:41.237Z,98294.14
2019-04-28T00:46:48.860Z,98287.28
2019-04-28T00:47:56.966Z,98293.80
2019-04-28T00:49:05.204Z,98288.62
2019-04-28T00:50:13.707Z,98290.60
2019-04-28T00:51:21.973Z,98290.45
2019-04-28T00:52:31.811Z,98289.61
2019-04-28T00:53:40.846Z,98287.09
2019-04-28T00:54:50.157Z,98289.11
2019-04-28T00:55:58.214Z,98290.60
2019-04-28T00:57:06.403Z,98286.11
2019-04-28T00:58:14.667Z,98286.94
2019-04-28T00:59:22.437Z,98282.45
2019-04-28T01:00:31.980Z,98280.13
2019-04-28T01:01:42.856Z,98283.97
2019-04-28T01:02:51.085Z,98287.47
2019-04-28T01:03:59.076Z,98274.29
2019-04-28T01:05:11.363Z,98283.12
2019-04-28T01:06:19.610Z,98281.95
2019-04-28T01:07:27.646Z,98279.78
2019-04-28T01:08:35.768Z,98278.63
2019-04-28T01:09:43.682Z,98279.47
2019-04-28T01:10:52.035Z,98275.00
2019-04-28T01:12:01.816Z,98284.80
2019-04-28T01:13:09.557Z,98278.63
2019-04-28T01:14:17.583Z,98286.51
2019-04-28T01:15:33.294Z,98288.13
2019-04-28T01:16:49.824Z,98283.78
2019-04-28T01:18:00.823Z,98286.11
2019-04-28T01:19:10.812Z,98286.87
2019-04-28T01:20:21.364Z,98287.53
2019-04-28T01:21:47.124Z,98294.02
2019-04-28T01:22:55.148Z,98293.17
2019-04-28T01:24:03.216Z,98288.61
2019-04-28T01:25:11.347Z,98293.80
2019-04-28T01:26:20.002Z,98295.62
2019-04-28T01:27:27.812Z,98293.77
2019-04-28T01:28:35.825Z,98301.95
2019-04-28T01:29:43.735Z,98298.94
2019-04-28T01:30:56.393Z,98299.44
2019-04-28T01:32:23.177Z,98301.60
2019-04-28T01:33:50.174Z,98301.60
2019-04-28T01:34:59.668Z,98298.59
2019-04-28T01:36:07.910Z,98296.08
2019-04-28T01:37:15.876Z,98301.91
2019-04-28T01:38:23.740Z,98303.73
2019-04-28T01:39:31.964Z,98303.37
2019-04-28T01:40:41.373Z,98302.41
2019-04-28T01:41:49.671Z,98301.08
2019-04-28T01:42:59.340Z,98306.91
2019-04-28T01:44:07.766Z,98306.03
2019-04-28T01:45:16.128Z,98307.24
2019-04-28T01:46:24.102Z,98306.25
2019-04-28T01:47:32.151Z,98312.42
2019-04-28T01:48:40.380Z,98305.91
2019-04-28T01:49:50.056Z,98311.58
2019-04-28T01:50:59.748Z,98308.70
2019-04-28T01:52:08.035Z,98303.86
2019-04-28T01:53:16.289Z,98302.69
2019-04-28T01:54:24.131Z,98307.73
2019-04-28T01:55:32.112Z,98302.91
2019-04-28T01:56:40.472Z,98302.91
2019-04-28T01:57:49.778Z,98305.91
2019-04-28T01:58:58.020Z,98305.41
2019-04-28T02:00:21.931Z,98303.73
2019-04-28T02:01:20.902Z,98305.08
2019-04-28T02:02:30.003Z,98304.42
2019-04-28T02:03:40.304Z,98308.61
2019-04-28T02:04:49.927Z,98303.99
2019-04-28T02:05:59.985Z,98308.18
2019-04-28T02:07:08.346Z,98303.88
2019-04-28T02:08:16.440Z,98302.75
2019-04-28T02:09:24.549Z,98306.95
2019-04-28T02:10:32.334Z,98306.14
2019-04-28T02:11:41.226Z,98305.02
2019-04-28T02:12:50.339Z,98301.86
2019-04-28T02:13:59.693Z,98307.84
2019-04-28T02:15:10.499Z,98304.34
2019-04-28T02:16:19.466Z,98307.84
2019-04-28T02:17:27.634Z,98304.34
2019-04-28T02:18:35.492Z,98304.80
2019-04-28T02:19:43.756Z,98303.13
2019-04-28T02:20:53.320Z,98301.95
2019-04-28T02:22:02.939Z,98302.63
2019-04-28T02:23:12.655Z,98296.80
2019-04-28T02:24:31.540Z,98303.63
2019-04-28T02:25:39.945Z,98309.02
2019-04-28T02:26:50.365Z,98302.02
2019-04-28T02:27:59.595Z,98306.51
2019-04-28T02:29:07.996Z,98303.97
2019-04-28T02:30:17.117Z,98299.47
2019-04-28T02:31:25.003Z,98306.14
2019-04-28T02:32:32.938Z,98298.13
2019-04-28T02:33:41.085Z,98299.34
2019-04-28T02:34:50.694Z,98306.02
2019-04-28T02:36:01.495Z,98301.52
2019-04-28T02:37:11.350Z,98303.03
2019-04-28T02:38:20.833Z,98297.20
2019-04-28T02:39:30.866Z,98297.89
2019-04-28T02:40:40.398Z,98297.45
2019-04-28T02:41:47.651Z,98300.61
2019-04-28T02:42:55.666Z,98294.29
2019-04-28T02:44:03.533Z,98295.62
2019-04-28T02:45:15.976Z,98297.45
2019-04-28T02:46:24.158Z,98298.10
2019-04-28T02:47:34.153Z,98291.59
2019-04-28T02:48:41.554Z,98295.94
2019-04-28T02:49:54.076Z,98290.88
2019-04-28T02:51:12.266Z,98291.19
2019-04-28T02:52:31.189Z,98293.52
2019-04-28T02:53:40.980Z,98291.00
2019-04-28T02:54:50.736Z,98290.29
2019-04-28T02:56:00.722Z,98288.28
2019-04-28T02:57:10.778Z,98292.28
2019-04-28T02:58:22.126Z,98292.28
2019-04-28T02:59:30.368Z,98293.42
2019-04-28T03:00:37.509Z,98291.75
2019-04-28T03:01:45.997Z,98287.38
2019-04-28T03:02:54.105Z,98289.02
2019-04-28T03:04:02.388Z,98292.67
2019-04-28T03:05:11.640Z,98286.85
2019-04-28T03:06:20.773Z,98292.67
2019-04-28T03:07:31.209Z,98290.66
2019-04-28T03:08:40.433Z,98292.12
2019-04-28T03:09:48.293Z,98290.78
2019-04-28T03:10:56.506Z,98298.29
2019-04-28T03:12:04.848Z,98287.44
2019-04-28T03:13:13.408Z,98294.26
2019-04-28T03:14:21.515Z,98289.57
2019-04-28T03:15:30.445Z,98292.92
2019-04-28T03:16:40.988Z,98289.42
2019-04-28T03:17:52.551Z,98292.58
2019-04-28T03:18:57.909Z,98295.37
2019-04-28T03:20:07.167Z,98296.36
2019-04-28T03:21:15.534Z,98300.02
2019-04-28T03:22:23.485Z,98297.69
2019-04-28T03:23:31.438Z,98294.99
2019-04-28T03:24:41.335Z,98301.50
2019-04-28T03:25:54.601Z,98300.17
2019-04-28T03:27:17.434Z,98295.67
2019-04-28T03:28:26.834Z,98301.50
2019-04-28T03:29:41.909Z,98301.50
2019-04-28T03:31:36.781Z,98304.33
2019-04-28T03:32:45.564Z,98304.82
2019-04-28T03:33:48.708Z,98305.81
2019-04-28T03:34:54.155Z,98306.15
2019-04-28T03:36:07.493Z,98304.17
2019-04-28T03:37:12.279Z,98303.18
2019-04-28T03:38:21.382Z,98303.67
2019-04-28T03:39:30.273Z,98307.67
2019-04-28T03:40:41.225Z,98307.17
2019-04-28T03:41:50.205Z,98313.34
2019-04-28T03:43:00.327Z,98308.85
2019-04-28T03:44:07.838Z,98307.52
2019-04-28T03:45:20.934Z,98306.68
2019-04-28T03:46:32.808Z,98312.23
2019-04-28T03:47:41.044Z,98308.51
2019-04-28T03:48:50.894Z,98306.84
2019-04-28T03:50:00.085Z,98308.85
2019-04-28T03:51:10.789Z,98314.19
2019-04-28T03:52:20.823Z,98311.67
2019-04-28T03:53:27.659Z,98313.34
2019-04-28T03:54:36.162Z,98313.34
2019-04-28T03:55:44.083Z,98310.49
2019-04-28T03:56:53.681Z,98308.32
2019-04-28T03:58:01.917Z,98310.27
2019-04-28T03:59:10.408Z,98324.47
2019-04-28T04:00:18.592Z,98318.77
2019-04-28T04:01:26.378Z,98330.14
2019-04-28T04:02:34.783Z,98325.80
2019-04-28T04:03:42.797Z,98327.97
2019-04-28T04:04:52.607Z,98322.64
2019-04-28T04:06:00.958Z,98323.82
2019-04-28T04:07:11.066Z,98322.83
2019-04-28T04:08:20.893Z,98317.50
2019-04-28T04:09:31.189Z,98328.50
2019-04-28T04:10:47.133Z,98319.52
2019-04-28T04:12:13.227Z,98332.69
2019-04-28T04:13:38.245Z,98335.85
2019-04-28T04:14:50.573Z,98337.68
2019-04-28T04:16:15.643Z,98336.50
2019-04-28T04:17:30.538Z,98338.33
2019-04-28T04:18:40.652Z,98344.16
2019-04-28T04:19:50.343Z,98336.50
2019-04-28T04:21:00.823Z,98344.65
2019-04-28T04:22:10.160Z,98342.48
2019-04-28T04:23:22.794Z,98338.64
2019-04-28T04:24:30.532Z,98335.47
2019-04-28T04:25:37.530Z,98346.97
2019-04-28T04:26:45.566Z,98344.80
2019-04-28T04:27:53.816Z,98342.48
2019-04-28T04:29:02.017Z,98348.00
2019-04-28T04:30:10.909Z,98346.17
2019-04-28T04:31:19.998Z,98349.18
2019-04-28T04:32:30.532Z,98351.23
2019-04-28T04:33:40.735Z,98355.42
2019-04-28T04:34:50.378Z,98347.27
2019-04-28T04:35:57.640Z,98356.45
2019-04-28T04:37:05.555Z,98353.78
2019-04-28T04:38:13.711Z,98354.66
2019-04-28T04:39:21.434Z,98356.94
2019-04-28T04:40:31.743Z,98359.98
2019-04-28T04:41:40.879Z,98354.16
2019-04-28T04:42:50.205Z,98350.34
2019-04-28T04:44:00.774Z,98359.53
2019-04-28T04:45:10.549Z,98363.37
2019-04-28T04:46:22.689Z,98359.75
2019-04-28T04:47:32.909Z,98355.59
2019-04-28T04:48:40.876Z,98357.95
2019-04-28T04:49:50.479Z,98360.69
2019-04-28T04:51:00.751Z,98363.70
2019-04-28T04:52:10.510Z,98362.52
2019-04-28T04:53:20.624Z,98365.52
2019-04-28T04:54:30.248Z,98364.69
2019-04-28T04:55:37.475Z,98365.68
2019-04-28T04:56:45.722Z,98373.18
2019-04-28T04:57:53.713Z,98363.70
2019-04-28T04:59:02.781Z,98360.53
2019-04-28T05:00:12.787Z,98366.55
2019-04-28T05:01:40.494Z,98368.56
2019-04-28T05:02:52.863Z,98367.11
2019-04-28T05:04:05.061Z,98361.13
2019-04-28T05:05:14.772Z,98368.48
2019-04-28T05:06:35.997Z,98366.52
2019-04-28T05:07:44.038Z,98369.87
2019-04-28T05:08:52.048Z,98367.89
2019-04-28T05:09:59.846Z,98366.74
2019-04-28T05:11:07.692Z,98368.95
2019-04-28T05:12:15.632Z,98374.47
2019-04-28T05:13:23.443Z,98372.64
2019-04-28T05:14:31.513Z,98374.16
2019-04-28T05:15:40.099Z,98363.83
2019-04-28T05:16:49.756Z,98371.22
2019-04-28T05:17:57.595Z,98376.23
2019-04-28T05:19:05.901Z,98373.91
2019-04-28T05:20:14.057Z,98376.08
2019-04-28T05:21:22.297Z,98376.92
2019-04-28T05:22:32.124Z,98383.97
2019-04-28T05:23:41.614Z,98379.59
2019-04-28T05:24:54.265Z,98381.77
2019-04-28T05:26:01.567Z,98383.97
2019-04-28T05:27:10.304Z,98382.47
2019-04-28T05:28:19.755Z,98387.66
2019-04-28T05:29:28.264Z,98385.83
2019-04-28T05:30:39.780Z,98385.67
2019-04-28T05:31:45.999Z,98380.67
2019-04-28T05:32:56.382Z,98380.55
2019-04-28T05:34:04.187Z,98383.90
2019-04-28T05:35:13.231Z,98384.40
2019-04-28T05:36:21.334Z,98385.73
2019-04-28T05:37:29.937Z,98384.89
2019-04-28T05:38:38.137Z,98382.22
2019-04-28T05:39:46.276Z,98378.72
2019-04-28T05:40:54.247Z,98378.72
2019-04-28T05:42:02.427Z,98387.06
2019-04-28T05:43:10.715Z,98380.73
2019-04-28T05:44:20.099Z,98386.41
2019-04-28T05:45:32.241Z,98384.58
2019-04-28T05:46:40.858Z,98383.24
2019-04-28T05:47:50.182Z,98385.26
2019-04-28T05:49:01.189Z,98387.93
2019-04-28T05:50:10.973Z,98388.80
2019-04-28T05:51:21.030Z,98395.59
2019-04-28T05:52:33.615Z,98396.25
2019-04-28T05:53:53.810Z,98394.08
2019-04-28T05:55:20.346Z,98404.09
2019-04-28T05:56:29.871Z,98396.09
2019-04-28T05:57:39.826Z,98393.77
2019-04-28T05:58:52.619Z,98392.15
2019-04-28T06:00:03.364Z,98392.34
2019-04-28T06:01:20.598Z,98391.68
2019-04-28T06:02:36.086Z,98396.18
2019-04-28T06:03:44.594Z,98402.36
2019-04-28T06:04:52.589Z,98398.02
2019-04-28T06:06:00.750Z,98402.52
2019-04-28T06:07:13.419Z,98407.02
2019-04-28T06:08:21.366Z,98405.68
2019-04-28T06:09:31.005Z,98401.18
2019-04-28T06:10:39.929Z,98402.48
2019-04-28T06:11:49.584Z,98406.98
2019-04-28T06:12:59.637Z,98400.31
2019-04-28T06:14:09.781Z,98400.66
2019-04-28T06:15:17.790Z,98397.48
2019-04-28T06:16:26.017Z,98399.34
2019-04-28T06:17:33.919Z,98399.23
2019-04-28T06:18:42.155Z,98407.08
2019-04-28T06:19:50.557Z,98402.91
2019-04-28T06:20:59.128Z,98410.92
2019-04-28T06:22:07.332Z,98406.92
2019-04-28T06:23:15.320Z,98416.94
2019-04-28T06:24:23.732Z,98416.11
2019-04-28T06:25:31.785Z,98414.43
2019-04-28T06:26:39.923Z,98417.94
2019-04-28T06:27:48.015Z,98413.09
2019-04-28T06:28:56.178Z,98417.94
2019-04-28T06:30:05.655Z,98412.26
2019-04-28T06:31:13.583Z,98412.41
2019-04-28T06:32:21.545Z,98416.27
2019-04-28T06:33:29.735Z,98415.27
2019-04-28T06:34:37.696Z,98410.77
2019-04-28T06:35:45.702Z,98408.28
2019-04-28T06:36:54.019Z,98407.10
2019-04-28T06:38:02.121Z,98409.61
2019-04-28T06:39:10.521Z,98408.16
2019-04-28T06:40:18.838Z,98411.50
2019-04-28T06:41:27.284Z,98412.34
2019-04-28T06:42:35.326Z,98410.39
2019-04-28T06:43:43.317Z,98419.95
2019-04-28T06:44:51.208Z,98412.44
2019-04-28T06:45:58.979Z,98414.95
2019-04-28T06:47:07.101Z,98419.11
2019-04-28T06:48:14.988Z,98416.06
2019-04-28T06:49:22.932Z,98417.22
2019-04-28T06:50:30.998Z,98419.89
2019-04-28T06:51:39.000Z,98421.63
2019-04-28T06:52:47.072Z,98419.61
2019-04-28T06:53:55.333Z,98428.45
2019-04-28T06:55:03.204Z,98420.77
2019-04-28T06:56:11.361Z,98417.91
2019-04-28T06:57:19.260Z,98419.37
2019-04-28T06:58:27.456Z,98421.20
2019-04-28T06:59:35.450Z,98417.35
2019-04-28T07:00:43.545Z,98418.88
2019-04-28T07:01:51.572Z,98426.26
2019-04-28T07:02:59.845Z,98419.42
2019-04-28T07:04:07.887Z,98427.25
2019-04-28T07:05:16.183Z,98430.70
2019-04-28T07:06:24.241Z,98426.51
2019-04-28T07:07:32.540Z,98433.52
2019-04-28T07:08:40.629Z,98437.80
2019-04-28T07:09:48.631Z,98438.45
2019-04-28T07:10:56.538Z,98438.27
2019-04-28T07:12:04.452Z,98438.27
2019-04-28T07:13:12.606Z,98445.78
2019-04-28T07:14:20.662Z,98439.79
2019-04-28T07:15:28.608Z,98438.80
2019-04-28T07:16:36.804Z,98431.29
2019-04-28T07:17:44.672Z,98437.13
2019-04-28T07:18:52.932Z,98435.29
2019-04-28T07:20:18.911Z,98442.45
2019-04-28T07:21:43.547Z,98440.97
2019-04-28T07:22:51.689Z,98438.17
2019-04-28T07:23:59.793Z,98445.31
2019-04-28T07:25:08.252Z,98446.31
2019-04-28T07:26:16.608Z,98447.80
2019-04-28T07:27:24.615Z,98446.95
2019-04-28T07:28:33.077Z,98449.47
2019-04-28T07:29:41.191Z,98439.79
2019-04-28T07:30:49.498Z,98448.30
2019-04-28T07:31:57.503Z,98445.78
2019-04-28T07:33:05.796Z,98449.56
2019-04-28T07:34:14.206Z,98453.37
2019-04-28T07:35:22.341Z,98453.04
2019-04-28T07:36:30.642Z,98452.13
2019-04-28T07:37:38.847Z,98457.62
2019-04-28T07:38:46.873Z,98458.27
2019-04-28T07:39:56.747Z,98460.94
2019-04-28T07:41:04.712Z,98465.62
2019-04-28T07:42:13.215Z,98463.61
2019-04-28T07:43:21.072Z,98459.61
2019-04-28T07:44:29.222Z,98471.89
2019-04-28T07:45:37.326Z,98476.73
2019-04-28T07:46:45.290Z,98464.38
2019-04-28T07:47:53.612Z,98470.21
2019-04-28T07:49:02.020Z,98467.84
2019-04-28T07:50:10.214Z,98470.52
2019-04-28T07:51:19.240Z,98464.77
2019-04-28T07:52:28.955Z,98465.76
2019-04-28T07:53:41.365Z,98466.91
2019-04-28T07:54:49.467Z,98464.85
2019-04-28T07:55:57.357Z,98465.34
2019-04-28T07:57:05.329Z,98469.99
2019-04-28T07:58:13.887Z,98465.99
2019-04-28T07:59:22.365Z,98469.50
2019-04-28T08:00:31.711Z,98464.31
2019-04-28T08:01:39.894Z,98470.30
2019-04-28T08:02:48.173Z,98469.45
2019-04-28T08:03:57.550Z,98468.59
2019-04-28T08:05:07.570Z,98476.59
2019-04-28T08:06:15.618Z,98468.89
2019-04-28T08:07:23.552Z,98472.24
2019-04-28T08:08:31.973Z,98477.39
2019-04-28T08:09:39.871Z,98474.72
2019-04-28T08:10:47.955Z,98475.37
2019-04-28T08:11:56.037Z,98473.20
2019-04-28T08:13:03.943Z,98474.30
2019-04-28T08:14:12.101Z,98479.86
2019-04-28T08:15:20.210Z,98476.82
2019-04-28T08:16:28.447Z,98477.20
2019-04-28T08:17:36.488Z,98482.16
2019-04-28T08:18:44.835Z,98478.80
2019-04-28T08:19:53.141Z,98484.09
2019-04-28T08:21:01.185Z,98477.54
2019-04-28T08:22:09.331Z,98487.30
2019-04-28T08:23:17.424Z,98480.92
2019-04-28T08:24:25.632Z,98482.75
2019-04-28T08:25:34.150Z,98489.92
2019-04-28T08:26:42.433Z,98480.66
2019-04-28T08:27:50.734Z,98481.34
2019-04-28T08:28:58.901Z,98487.52
2019-04-28T08:30:08.977Z,98484.31
2019-04-28T08:31:18.971Z,98487.47
2019-04-28T08:32:29.183Z,98490.64
2019-04-28T08:33:41.360Z,98492.31
2019-04-28T08:34:49.413Z,98493.65
2019-04-28T08:35:57.256Z,98492.16
2019-04-28T08:37:05.645Z,98495.67
2019-04-28T08:38:13.792Z,98492.02
2019-04-28T08:39:25.029Z,98490.68
2019-04-28T08:40:31.990Z,98499.33
2019-04-28T08:41:40.290Z,98492.66
2019-04-28T08:42:48.662Z,98496.31
2019-04-28T08:43:56.683Z,98500.09
2019-04-28T08:45:08.601Z,98494.26
2019-04-28T08:46:16.535Z,98504.58
2019-04-28T08:47:24.567Z,98494.06
2019-04-28T08:48:32.525Z,98502.21
2019-04-28T08:49:40.663Z,98497.38
2019-04-28T08:50:48.755Z,98496.19
2019-04-28T08:51:56.659Z,98496.45
2019-04-28T08:53:04.890Z,98496.80
2019-04-28T08:54:12.870Z,98499.96
2019-04-28T08:55:21.345Z,98496.95
2019-04-28T08:56:29.460Z,98504.11
2019-04-28T08:57:37.758Z,98503.12
2019-04-28T08:58:45.835Z,98501.14
2019-04-28T08:59:54.237Z,98502.09
2019-04-28T09:01:02.389Z,98498.44
2019-04-28T09:02:10.455Z,98496.41
2019-04-28T09:03:18.424Z,98500.11
2019-04-28T09:04:26.626Z,98496.03
2019-04-28T09:05:34.925Z,98491.34
2019-04-28T09:06:42.926Z,98496.41
2019-04-28T09:07:50.915Z,98494.99
2019-04-28T09:08:58.756Z,98497.86
2019-04-28T09:10:10.293Z,98494.70
2019-04-28T09:11:18.492Z,98496.75
2019-04-28T09:12:26.449Z,98496.03
2019-04-28T09:13:34.879Z,98499.91
2019-04-28T09:14:42.901Z,98501.73
2019-04-28T09:15:50.902Z,98492.75
2019-04-28T09:16:58.692Z,98495.77
2019-04-28T09:18:06.860Z,98497.25
2019-04-28T09:19:15.050Z,98493.74
2019-04-28T09:20:23.157Z,98503.53
2019-04-28T09:21:31.375Z,98496.52
2019-04-28T09:22:39.556Z,98502.20
2019-04-28T09:23:47.617Z,98499.48
2019-04-28T09:24:55.849Z,98499.63
2019-04-28T09:26:03.945Z,98503.14
2019-04-28T09:27:11.910Z,98501.31
2019-04-28T09:28:19.771Z,98497.68
2019-04-28T09:29:28.134Z,98502.72
2019-04-28T09:30:36.338Z,98499.55
2019-04-28T09:31:44.398Z,98501.38
2019-04-28T09:32:52.532Z,98499.55
2019-04-28T09:34:00.469Z,98500.73
2019-04-28T09:35:08.901Z,98506.56
2019-04-28T09:36:17.112Z,98510.22
2019-04-28T09:37:24.807Z,98507.05
2019-04-28T09:38:32.935Z,98509.38
2019-04-28T09:39:47.958Z,98508.39
2019-04-28T09:40:56.123Z,98507.20
2019-04-28T09:42:24.337Z,98503.05
2019-04-28T09:43:33.996Z,98505.58
2019-04-28T09:44:41.799Z,98505.73
2019-04-28T09:45:51.272Z,98511.05
2019-04-28T09:46:59.408Z,98511.89
2019-04-28T09:48:07.549Z,98519.98
2019-04-28T09:49:15.813Z,98514.52
2019-04-28T09:50:23.977Z,98513.87
2019-04-28T09:51:31.912Z,98521.17
2019-04-28T09:52:40.183Z,98507.50
2019-04-28T09:53:48.261Z,98515.49
2019-04-28T09:54:56.310Z,98509.67
2019-04-28T09:56:04.499Z,98507.84
2019-04-28T09:57:12.705Z,98511.50
2019-04-28T09:58:21.068Z,98510.16
2019-04-28T09:59:29.308Z,98516.68
2019-04-28T10:00:39.334Z,98517.17
2019-04-28T10:01:47.533Z,98510.16
2019-04-28T10:02:55.628Z,98510.28
2019-04-28T10:04:04.016Z,98508.41
2019-04-28T10:05:12.733Z,98510.72
2019-04-28T10:06:20.644Z,98508.90
2019-04-28T10:07:28.642Z,98499.83
2019-04-28T10:08:36.894Z,98504.62
2019-04-28T10:09:44.924Z,98507.97
2019-04-28T10:10:53.070Z,98502.30
2019-04-28T10:12:01.072Z,98506.15
2019-04-28T10:13:09.123Z,98503.62
2019-04-28T10:14:17.318Z,98504.97
2019-04-28T10:15:25.556Z,98507.28
2019-04-28T10:16:33.509Z,98498.07
2019-04-28T10:17:43.624Z,98503.62
2019-04-28T10:18:51.651Z,98505.31
2019-04-28T10:19:59.969Z,98510.98
2019-04-28T10:21:08.557Z,98510.00
2019-04-28T10:22:16.644Z,98505.66
2019-04-28T10:23:24.544Z,98502.73
2019-04-28T10:24:32.590Z,98500.41
2019-04-28T10:25:40.638Z,98497.74
2019-04-28T10:26:48.789Z,98503.08
2019-04-28T10:27:56.830Z,98507.91
2019-04-28T10:29:05.032Z,98501.74
2019-04-28T10:30:13.893Z,98501.25
2019-04-28T10:31:21.852Z,98501.94
2019-04-28T10:32:29.835Z,98501.67
2019-04-28T10:33:39.527Z,98506.86
2019-04-28T10:34:54.768Z,98508.69
2019-04-28T10:35:56.901Z,98501.19
2019-04-28T10:37:04.987Z,98507.35
2019-04-28T10:38:13.099Z,98505.73
2019-04-28T10:39:25.682Z,98507.98
2019-04-28T10:40:41.106Z,98507.68
2019-04-28T10:41:49.174Z,98507.68
2019-04-28T10:42:57.207Z,98503.42
2019-04-28T10:44:05.285Z,98502.92
2019-04-28T10:45:20.968Z,98510.42
2019-04-28T10:46:28.946Z,98504.26
2019-04-28T10:47:37.337Z,98501.94
2019-04-28T10:48:45.919Z,98504.60
2019-04-28T10:49:54.117Z,98508.11
2019-04-28T10:51:02.087Z,98508.95
2019-04-28T10:52:10.117Z,98506.13
2019-04-28T10:53:18.396Z,98505.78
2019-04-28T10:54:26.719Z,98504.19
2019-04-28T10:55:34.812Z,98499.55
2019-04-28T10:56:43.084Z,98503.73
2019-04-28T10:57:51.319Z,98507.97
2019-04-28T10:59:00.049Z,98509.00
2019-04-28T11:00:09.692Z,98504.51
2019-04-28T11:01:17.460Z,98501.00
2019-04-28T11:02:25.443Z,98503.67
2019-04-28T11:03:33.502Z,98494.63
2019-04-28T11:04:43.271Z,98499.47
2019-04-28T11:05:51.670Z,98504.31
2019-04-28T11:06:59.771Z,98502.63
2019-04-28T11:08:09.699Z,98500.81
2019-04-28T11:09:30.407Z,98501.64
2019-04-28T11:10:32.447Z,98502.63
2019-04-28T11:11:40.479Z,98505.99
2019-04-28T11:12:48.530Z,98498.83
2019-04-28T11:13:56.768Z,98496.16
2019-04-28T11:15:09.121Z,98494.83
2019-04-28T11:16:18.118Z,98498.68
2019-04-28T11:17:26.967Z,98496.59
2019-04-28T11:18:34.852Z,98488.78
2019-04-28T11:19:42.680Z,98498.87
2019-04-28T11:20:51.198Z,98500.21
2019-04-28T11:21:58.981Z,98494.92
2019-04-28T11:23:07.242Z,98502.65
2019-04-28T11:24:15.151Z,98495.34
2019-04-28T11:25:23.453Z,98500.86
2019-04-28T11:26:31.655Z,98495.19
2019-04-28T11:27:39.809Z,98502.08
2019-04-28T11:28:47.853Z,98497.92
2019-04-28T11:29:55.942Z,98495.94
2019-04-28T11:31:04.256Z,98486.80
2019-04-28T11:32:12.665Z,98489.84
2019-04-28T11:33:35.808Z,98492.36
2019-04-28T11:34:49.520Z,98488.35
2019-04-28T11:35:57.742Z,98492.20
2019-04-28T11:37:05.672Z,98490.38
2019-04-28T11:38:13.826Z,98487.86
2019-04-28T11:39:23.329Z,98490.03
2019-04-28T11:40:31.478Z,98493.34
2019-04-28T11:41:39.736Z,98491.17
2019-04-28T11:42:47.720Z,98487.79
2019-04-28T11:43:55.639Z,98495.03
2019-04-28T11:45:04.856Z,98489.42
2019-04-28T11:46:14.404Z,98496.09
2019-04-28T11:47:23.360Z,98491.75
2019-04-28T11:48:31.518Z,98500.09
2019-04-28T11:49:39.599Z,98498.77
2019-04-28T11:50:47.566Z,98492.44
2019-04-28T11:51:55.589Z,98486.56
2019-04-28T11:53:03.686Z,98491.10
2019-04-28T11:54:11.734Z,98491.10
2019-04-28T11:55:19.902Z,98495.25
2019-04-28T11:56:40.425Z,98496.74
2019-04-28T11:57:37.872Z,98494.19
2019-04-28T11:58:45.916Z,98494.19
2019-04-28T11:59:54.254Z,98497.50
2019-04-28T12:01:02.361Z,98500.17
2019-04-28T12:02:10.496Z,98498.34
2019-04-28T12:03:18.729Z,98498.08
2019-04-28T12:04:26.944Z,98494.27
2019-04-28T12:05:39.518Z,98490.80
2019-04-28T12:06:47.746Z,98491.52
2019-04-28T12:07:55.823Z,98500.20
2019-04-28T12:09:08.838Z,98489.19
2019-04-28T12:10:24.103Z,98498.87
2019-04-28T12:11:36.378Z,98502.88
2019-04-28T12:13:01.482Z,98499.86
2019-04-28T12:14:16.801Z,98502.88
2019-04-28T12:15:44.935Z,98504.36
2019-04-28T12:16:54.570Z,98496.36
2019-04-28T12:18:02.365Z,98501.54
2019-04-28T12:19:12.097Z,98497.69
2019-04-28T12:20:21.594Z,98508.21
2019-04-28T12:21:29.575Z,98500.20
2019-04-28T12:22:37.496Z,98497.05
2019-04-28T12:23:45.348Z,98507.37
2019-04-28T12:24:53.378Z,98497.05
2019-04-28T12:26:01.831Z,98492.70
2019-04-28T12:27:09.860Z,98496.20
2019-04-28T12:28:17.852Z,98491.36
2019-04-28T12:29:25.865Z,98495.56
2019-04-28T12:30:33.713Z,98491.78
2019-04-28T12:31:41.811Z,98488.62
2019-04-28T12:32:50.050Z,98484.30
2019-04-28T12:33:58.057Z,98486.63
2019-04-28T12:35:06.779Z,98489.30
2019-04-28T12:36:14.754Z,98478.47
2019-04-28T12:37:22.785Z,98481.79
2019-04-28T12:38:30.717Z,98485.30
2019-04-28T12:39:38.948Z,98485.30
2019-04-28T12:40:47.005Z,98482.78
2019-04-28T12:41:54.957Z,98480.80
2019-04-28T12:43:03.132Z,98483.97
2019-04-28T12:44:11.149Z,98478.28
2019-04-28T12:45:19.632Z,98478.06
2019-04-28T12:46:27.832Z,98481.94
2019-04-28T12:47:35.747Z,98479.77
2019-04-28T12:48:43.956Z,98480.11
2019-04-28T12:49:53.628Z,98478.44
2019-04-28T12:51:01.668Z,98478.44
2019-04-28T12:52:10.387Z,98480.11
2019-04-28T12:53:18.713Z,98481.45
2019-04-28T12:54:28.621Z,98471.77
2019-04-28T12:55:36.703Z,98477.22
2019-04-28T12:56:44.716Z,98471.36
2019-04-28T12:57:53.168Z,98470.17
2019-04-28T12:59:02.983Z,98476.84
2019-04-28T13:00:11.751Z,98478.67
2019-04-28T13:01:19.543Z,98473.45
2019-04-28T13:02:31.978Z,98476.50
2019-04-28T13:03:39.758Z,98480.12
2019-04-28T13:04:52.387Z,98481.34
2019-04-28T13:06:05.558Z,98476.84
2019-04-28T13:07:12.141Z,98474.86
2019-04-28T13:08:20.102Z,98474.55
2019-04-28T13:09:28.185Z,98479.27
2019-04-28T13:10:36.343Z,98473.30
2019-04-28T13:11:44.257Z,98477.14
2019-04-28T13:12:52.678Z,98476.64
2019-04-28T13:14:00.743Z,98473.48
2019-04-28T13:15:09.130Z,98464.14
2019-04-28T13:16:17.294Z,98467.65
2019-04-28T13:17:25.236Z,98468.86
2019-04-28T13:18:33.567Z,98466.69
2019-04-28T13:19:41.589Z,98467.03
2019-04-28T13:20:49.593Z,98470.38
2019-04-28T13:21:57.886Z,98469.23
2019-04-28T13:23:06.052Z,98467.41
2019-04-28T13:24:14.182Z,98464.62
2019-04-28T13:25:22.287Z,98463.97
2019-04-28T13:26:30.613Z,98470.83
2019-04-28T13:27:38.574Z,98473.34
2019-04-28T13:28:46.733Z,98470.05
2019-04-28T13:29:54.852Z,98466.89
2019-04-28T13:31:03.075Z,98467.57
2019-04-28T13:32:11.061Z,98467.08
2019-04-28T13:33:19.348Z,98466.92
2019-04-28T13:34:29.132Z,98470.80
2019-04-28T13:35:37.413Z,98456.12